createdAt,value
2022-10-17T00:04:30.367Z,12.20
2022-10-17T00:09:32.852Z,12.20
2022-10-17T00:14:35.681Z,11.20
2022-10-17T00:19:38.100Z,11.10
2022-10-17T00:24:40.662Z,12.20
2022-10-17T00:29:43.250Z,10.80
2022-10-17T00:34:46.494Z,10.80
2022-10-17T00:39:48.910Z,11.30
2022-10-17T00:45:02.516Z,11.50
2022-10-17T00:50:06.703Z,11.20
2022-10-17T00:55:14.864Z,10.60
2022-10-17T01:00:19.011Z,10.60
2022-10-17T01:05:21.560Z,11.10
2022-10-17T01:10:30.108Z,10.60
2022-10-17T01:15:56.186Z,11.30
2022-10-17T01:21:17.240Z,11.30
2022-10-17T01:36:57.747Z,10.80
2022-10-17T01:42:11.390Z,10.50
2022-10-17T01:47:19.344Z,9.60
2022-10-17T01:52:29.351Z,9.40
2022-10-17T01:57:52.864Z,9.50
2022-10-17T02:03:00.020Z,9.60
2022-10-17T02:08:03.381Z,10.00
2022-10-17T02:13:24.379Z,8.50
2022-10-17T02:18:51.496Z,8.20
2022-10-17T02:23:59.928Z,8.50
2022-10-17T02:29:13.574Z,8.20
2022-10-17T02:34:32.008Z,14.40
2022-10-17T02:39:36.928Z,14.40
2022-10-17T02:44:43.503Z,12.10
2022-10-17T02:49:51.445Z,12.20
2022-10-17T02:55:12.857Z,11.30
2022-10-17T03:00:17.489Z,8.00
2022-10-17T03:05:25.942Z,7.50
2022-10-17T03:10:28.344Z,6.90
2022-10-17T03:15:30.766Z,6.90
2022-10-17T03:20:33.671Z,7.30
2022-10-17T03:25:36.105Z,8.30
2022-10-17T03:30:39.341Z,8.50
2022-10-17T03:35:41.806Z,9.10
2022-10-17T03:40:44.276Z,7.80
2022-10-17T03:45:46.761Z,8.60
2022-10-17T03:50:50.807Z,9.70
2022-10-17T03:55:53.224Z,8.60
2022-10-17T04:00:55.720Z,8.50
2022-10-17T04:06:00.131Z,8.80
2022-10-17T04:11:04.948Z,7.60
2022-10-17T04:16:11.744Z,13.80
2022-10-17T04:21:14.339Z,14.40
2022-10-17T04:26:16.785Z,54.90
2022-10-17T04:31:19.662Z,11.90
2022-10-17T04:36:23.301Z,25.60
2022-10-17T04:41:25.980Z,20.70
2022-10-17T04:46:28.420Z,22.10
2022-10-17T04:51:30.955Z,21.10
2022-10-17T04:56:33.401Z,20.50
2022-10-17T05:01:37.574Z,21.00
2022-10-17T05:06:40.153Z,14.30
2022-10-17T05:11:43.358Z,16.60
2022-10-17T05:16:45.754Z,26.00
2022-10-17T05:21:48.176Z,15.00
2022-10-17T05:26:51.936Z,18.80
2022-10-17T05:31:54.543Z,16.00
2022-10-17T05:36:57.593Z,14.10
2022-10-17T05:42:00.623Z,13.70
2022-10-17T05:47:03.027Z,13.80
2022-10-17T05:52:06.430Z,11.20
2022-10-17T05:57:08.924Z,16.30
2022-10-17T06:02:13.131Z,14.90
2022-10-17T06:07:16.417Z,16.50
2022-10-17T06:12:19.139Z,18.30
2022-10-17T06:17:21.627Z,15.80
2022-10-17T06:22:24.063Z,17.40
2022-10-17T06:27:26.550Z,20.90
2022-10-17T06:32:30.169Z,19.00
2022-10-17T06:37:36.528Z,15.70
2022-10-17T06:42:39.766Z,12.70
2022-10-17T06:47:42.346Z,11.50
2022-10-17T06:52:44.858Z,9.40
2022-10-17T06:57:48.832Z,11.00
2022-10-17T07:02:51.537Z,9.60
2022-10-17T07:07:53.925Z,10.40
2022-10-17T07:12:56.386Z,11.00
2022-10-17T07:17:58.843Z,13.30
2022-10-17T07:23:01.676Z,14.40
2022-10-17T07:28:04.395Z,14.30
2022-10-17T07:33:07.109Z,14.20
2022-10-17T07:38:09.618Z,14.10
2022-10-17T07:43:12.013Z,13.90
2022-10-17T07:48:14.460Z,13.10
2022-10-17T07:53:17.884Z,13.30
2022-10-17T07:58:20.637Z,13.00
2022-10-17T08:03:23.187Z,13.20
2022-10-17T08:08:26.778Z,12.70
2022-10-17T08:13:33.306Z,15.00
2022-10-17T08:18:36.823Z,12.40
2022-10-17T08:23:39.717Z,12.00
2022-10-17T08:28:42.609Z,11.00
2022-10-17T08:33:46.041Z,11.00
2022-10-17T08:38:52.560Z,9.10
2022-10-17T08:44:17.280Z,8.10
2022-10-17T08:49:32.030Z,7.20
2022-10-17T08:54:45.474Z,6.50
2022-10-17T08:59:53.307Z,6.20
2022-10-17T09:05:18.069Z,6.60
2022-10-17T09:10:46.443Z,6.00
2022-10-17T09:16:15.147Z,7.00
2022-10-17T09:21:23.145Z,6.20
2022-10-17T09:26:28.384Z,5.10
2022-10-17T09:31:40.767Z,4.50
2022-10-17T09:36:44.050Z,4.50
2022-10-17T09:41:53.705Z,5.90
2022-10-17T09:47:24.775Z,8.30
2022-10-17T09:52:33.134Z,5.70
2022-10-17T09:57:58.461Z,4.30
2022-10-17T10:03:09.434Z,2.70
2022-10-17T10:08:18.746Z,2.40
2022-10-17T10:13:21.346Z,2.90
2022-10-17T10:18:26.640Z,2.70
2022-10-17T10:23:29.079Z,4.10
2022-10-17T10:28:35.256Z,3.40
2022-10-17T10:33:45.881Z,3.60
2022-10-17T10:38:55.410Z,3.90
2022-10-17T10:43:57.902Z,3.30
2022-10-17T10:49:01.869Z,3.90
2022-10-17T10:54:29.365Z,3.70
2022-10-17T10:59:45.555Z,3.00
2022-10-17T11:05:25.673Z,2.90
2022-10-17T11:10:39.272Z,3.30
2022-10-17T11:15:53.728Z,3.20
2022-10-17T11:21:10.422Z,3.00
2022-10-17T11:26:35.574Z,3.10
2022-10-17T11:31:47.934Z,2.70
2022-10-17T11:36:54.629Z,3.40
2022-10-17T11:42:06.867Z,3.60
2022-10-17T11:47:31.185Z,3.60
2022-10-17T11:52:55.819Z,4.90
2022-10-17T11:58:05.169Z,4.40
2022-10-17T12:03:23.040Z,4.60
2022-10-17T12:08:31.322Z,4.80
2022-10-17T12:13:35.101Z,5.00
2022-10-17T12:18:37.743Z,5.20
2022-10-17T12:23:41.394Z,4.30
2022-10-17T12:28:45.263Z,5.20
2022-10-17T12:34:15.649Z,6.00
2022-10-17T12:44:23.855Z,5.90
2022-10-17T12:49:46.350Z,7.90
2022-10-17T12:55:00.591Z,8.40
2022-10-17T13:00:21.979Z,7.70
2022-10-17T13:05:29.470Z,7.30
2022-10-17T13:10:41.964Z,7.90
2022-10-17T13:15:51.050Z,8.20
2022-10-17T13:20:59.268Z,8.10
2022-10-17T13:26:16.152Z,8.40
2022-10-17T13:31:39.299Z,8.20
2022-10-17T13:36:47.829Z,9.60
2022-10-17T13:41:54.094Z,8.20
2022-10-17T13:46:56.841Z,8.90
2022-10-17T13:52:02.650Z,9.20
2022-10-17T13:57:16.347Z,8.90
2022-10-17T14:02:45.192Z,8.50
2022-10-17T14:08:10.842Z,8.40
2022-10-17T14:13:36.132Z,7.80
2022-10-17T14:18:38.865Z,9.30
2022-10-17T14:23:44.218Z,8.20
2022-10-17T14:29:03.303Z,9.10
2022-10-17T14:34:05.898Z,9.20
2022-10-17T14:39:20.180Z,9.30
2022-10-17T14:44:34.917Z,10.50
2022-10-17T14:49:39.417Z,10.80
2022-10-17T14:54:44.370Z,11.50
2022-10-17T14:59:55.492Z,11.60
2022-10-17T15:04:58.263Z,12.50
2022-10-17T15:10:00.848Z,11.40
2022-10-17T15:15:04.953Z,14.90
2022-10-17T15:20:19.152Z,15.00
2022-10-17T15:25:21.735Z,14.60
2022-10-17T15:30:30.282Z,14.60
2022-10-17T15:35:32.961Z,15.40
2022-10-17T15:40:35.937Z,14.40
2022-10-17T15:45:38.724Z,16.40
2022-10-17T15:50:41.156Z,16.20
2022-10-17T15:55:43.698Z,19.20
2022-10-17T16:00:47.249Z,18.50
2022-10-17T16:05:49.700Z,17.70
2022-10-17T16:10:52.958Z,18.90
2022-10-17T16:15:55.690Z,19.50
2022-10-17T16:20:58.791Z,17.40
2022-10-17T16:26:01.172Z,18.00
2022-10-17T16:31:03.635Z,17.60
2022-10-17T16:36:07.024Z,19.20
2022-10-17T16:41:29.211Z,17.60
2022-10-17T16:46:35.861Z,16.70
2022-10-17T16:51:38.322Z,16.80
2022-10-17T16:56:42.960Z,16.50
2022-10-17T17:01:45.709Z,17.40
2022-10-17T17:06:48.851Z,14.40
2022-10-17T17:11:52.027Z,14.60
2022-10-17T17:16:54.476Z,15.80
2022-10-17T17:21:56.935Z,15.50
2022-10-17T17:26:59.826Z,15.90
2022-10-17T17:32:02.641Z,16.20
2022-10-17T17:37:05.376Z,15.70
2022-10-17T17:42:08.038Z,15.30
2022-10-17T17:47:10.505Z,15.60
2022-10-17T17:52:13.026Z,14.70
2022-10-17T17:57:16.780Z,15.30
2022-10-17T18:02:19.522Z,16.90
2022-10-17T18:07:22.541Z,15.30
2022-10-17T18:12:25.104Z,15.60
2022-10-17T18:17:29.377Z,14.60
2022-10-17T18:22:32.329Z,14.20
2022-10-17T18:27:35.136Z,14.90
2022-10-17T18:32:37.590Z,15.70
2022-10-17T18:42:43.251Z,14.90
2022-10-17T18:47:52.406Z,12.40
2022-10-17T18:52:54.886Z,15.40
2022-10-17T18:57:57.465Z,16.20
2022-10-17T19:03:00.170Z,14.60
2022-10-17T19:08:02.940Z,15.80
2022-10-17T19:13:05.438Z,14.40
2022-10-17T19:18:07.883Z,13.20
2022-10-17T19:23:10.295Z,14.90
2022-10-17T19:28:12.750Z,14.90
2022-10-17T19:33:15.184Z,13.70
2022-10-17T19:38:17.606Z,13.20
2022-10-17T19:43:21.265Z,13.20
2022-10-17T19:48:24.611Z,13.00
2022-10-17T19:53:29.343Z,13.50
2022-10-17T19:58:34.151Z,13.00
2022-10-17T20:03:37.676Z,14.00
2022-10-17T20:08:41.831Z,13.70
2022-10-17T20:13:45.269Z,12.70
2022-10-17T20:18:50.887Z,14.30
2022-10-17T20:23:54.833Z,13.50
2022-10-17T20:28:57.885Z,13.80
2022-10-17T20:34:00.561Z,12.60
2022-10-17T20:39:03.965Z,13.20
2022-10-17T20:44:07.070Z,11.10
2022-10-17T20:49:14.646Z,11.80
2022-10-17T20:54:17.063Z,12.90
2022-10-17T20:59:19.911Z,14.10
2022-10-17T21:09:52.179Z,13.50
2022-10-17T21:14:58.373Z,13.60
2022-10-17T21:20:01.048Z,13.80
2022-10-17T21:25:03.876Z,12.90
2022-10-17T21:35:11.050Z,13.10
2022-10-17T21:40:13.461Z,13.90
2022-10-17T21:45:25.361Z,13.10
2022-10-17T21:50:28.423Z,13.00
2022-10-17T21:55:30.824Z,11.70
2022-10-17T22:00:33.291Z,13.60
2022-10-17T22:05:35.732Z,13.40
2022-10-17T22:10:39.641Z,13.80
2022-10-17T22:15:42.036Z,14.00
2022-10-17T22:20:44.507Z,13.90
2022-10-17T22:26:06.083Z,14.50
2022-10-17T22:31:08.984Z,13.80
2022-10-17T22:36:11.409Z,14.90
2022-10-17T22:41:13.791Z,15.90
2022-10-17T22:46:16.919Z,13.70
2022-10-17T22:51:20.108Z,12.10
2022-10-17T22:56:23.493Z,12.40
2022-10-17T23:01:26.756Z,14.00
2022-10-17T23:06:29.249Z,12.50
2022-10-17T23:11:31.700Z,14.30
2022-10-17T23:16:34.173Z,12.10
2022-10-17T23:21:36.648Z,12.80
2022-10-17T23:26:39.330Z,16.20
2022-10-17T23:31:41.766Z,14.40
2022-10-17T23:36:44.361Z,12.70
2022-10-17T23:41:47.101Z,15.00
2022-10-17T23:46:49.510Z,13.20
2022-10-17T23:51:51.974Z,13.40
2022-10-17T23:56:54.392Z,15.20
